x

Pt Arena - 19nm North Of Point Arena, Ca (46014) Wave Buoy

10:50am - Thu 21st Aug 2014 All times are PDT. -7 hours from GMT.

  • Sig Wave height 4.9ft
  • Peak Period 8s
  • Average Period 6s
  • Wind
    11mph
  • Sea Temp 59°f
  • Air Temp 57°f
  • Sea Pressure 1015.6mb
  • Pt Arena - 19nm North Of Point Arena, Ca
  • Pt Arena - 19nm North Of Point Arena, Ca

More Historic Weather Station data

Upgrade to MSW Pro to gain access to the past 30 days of data for over 8000 Wavebouys and Weather Stations around the globe.

Join Pro

Comparision Forecast

View Surf forecast
   
Thu 08/21 10:50am 5ft 8s 6s 11
mph
1015.6mb 59f 57f
9:50am 4.5ft 7s 6s 9 13 mph 1014.9mb 59f 56f
7:50am  -   -   -  9 11 mph 1013.9mb 59f 56f
6:50am 4.5ft 7s 6s  -  4 mph 1013.5mb 59f 56f
5:50am 4.5ft 7s 6s 4 7 mph 1013.1mb 59f 56f
4:50am 4.5ft 6s 6s 9 11 mph 1013.2mb 59f 56f
3:50am 4.5ft 7s 6s 7 9 mph 1013.4mb 59f 55f
2:50am 4.5ft 6s 6s  -  2 mph 1013.5mb 59f 55f
1:50am 4.5ft 6s 6s 4 7 mph 1013.5mb 59f 55f
12:50am 4.5ft 9s 6s 4 7 mph 1013.4mb 59f 55f
Wed 08/20 11:50pm 4.5ft 10s 6s 7 9 mph 1013.1mb 59f 56f
10:50pm 4.5ft 10s 6s 7 9 mph 1012.9mb 59f 56f
9:50pm 5ft 10s 6s 4 7 mph 1012.9mb 59f 56f
8:50pm 4.5ft 8s 6s 9 11 mph 1012.7mb 59f 56f
7:50pm 4ft 8s 6s 9 11 mph 1012.5mb 59f 57f
6:50pm 4ft 8s 6s 9 11 mph 1012.8mb 59f 57f
5:50pm  -   -   -  9
mph
1013.1mb 59f 57f
4:50pm 4.5ft 7s 6s 11 13 mph 1013.4mb 59f 57f
3:50pm 4ft 8s 6s 7 9 mph 1013.7mb 60f 57f
2:50pm 4.5ft 8s 6s 4 7 mph 1014.1mb 60f 57f
1:50pm  -   -   -  9 11 mph 1014.2mb 61f 57f
12:50pm 4ft 8s 6s 2 4 mph 1014.1mb 60f 58f
11:50am 5ft 8s 6s  -  mph 1014.3mb 59f 57f
10:50am 5ft 8s 6s  -  2 mph 1014.3mb 59f 58f
9:50am 5ft 8s 6s 4 7 mph 1013.6mb 59f 57f
8:50am 4.5ft 8s 6s 4 7 mph 1013.1mb 58f 56f
7:50am 5.5ft 8s 7s  -  2 mph 1012.8mb 57f 55f
6:50am 5ft 8s 7s 4 7 mph 1012.7mb 57f 56f
5:50am 5ft 8s 7s  -  4 mph 1012.2mb 57f 56f
4:50am 5ft 8s 7s  -  mph 1011.9mb 57f 56f
3:50am 5ft 8s 7s 2 4 mph 1011.9mb 57f 56f
2:50am 4.5ft 8s 7s 4 7 mph 1011.9mb 57f 56f
1:50am 4.5ft 8s 7s 4 7 mph 1012mb 57f 55f
12:50am  -   -   -   -  2 mph 1012.1mb 57f 55f
Tue 08/19 11:50pm 4.5ft 8s 7s 2 4 mph 1011.8mb 57f 56f
10:50pm 4.5ft 8s 7s 2
mph
1011.5mb 57f 55f
9:50pm 4.5ft 9s 7s 2 4 mph 1011.6mb 56f 56f
8:50pm 4.5ft 8s 7s 2 7 mph 1011.3mb 55f 55f
7:50pm 4.5ft 8s 7s 4
mph
1011.2mb 55f 55f
6:50pm 5ft 8s 7s 4 7 mph 1011.1mb 56f 55f
5:50pm 5ft 8s 7s 7 9 mph 1011.1mb 56f 56f
4:50pm 5ft 8s 7s 2
mph
1011.1mb 56f 57f
3:50pm 5ft 8s 6s 4 7 mph 1011.3mb 56f 57f
2:50pm 5ft 8s 6s 7 9 mph 1011.7mb 56f 57f
1:50pm 5ft 8s 6s 7 11 mph 1011.9mb 57f 57f
12:50pm 4.5ft 8s 6s 11 13 mph 1011.8mb 57f 57f
11:50am 5ft 8s 6s 9 13 mph 1012mb 57f 57f
10:50am 4.5ft 7s 6s 9 11 mph 1011.5mb 56f 56f
9:50am 4.5ft 8s 6s 13 16 mph 1011mb 57f 56f
8:50am 5ft 8s 6s 13 16 mph 1010.9mb 57f 56f
7:50am 4.5ft 7s 6s 7 11 mph 1010.9mb 57f 55f
6:50am 4.5ft 7s 6s 9
mph
1010.3mb 56f 55f
5:50am 4.5ft 10s 6s 4 7 mph 1009.8mb 56f 54f
4:50am 4.5ft 7s 6s  -  mph 1009.8mb 56f 54f
3:50am 4.5ft 7s 6s 7 9 mph 1009.8mb 56f 55f
2:50am 4.5ft 8s 6s 2 4 mph 1009.9mb 56f 55f
1:50am 5ft 7s 6s 7 9 mph 1009.5mb 56f 54f
12:50am 5ft 7s 6s 4 9 mph 1009.3mb 56f 54f
Mon 08/18 11:50pm 5.5ft 8s 6s 13 18 mph 1009.8mb 56f 55f
10:50pm 6ft 8s 6s 16 18 mph 1010.2mb 56f 55f
9:50pm 6ft 7s 6s 16 20 mph 1010.3mb 56f 55f
8:50pm 6.5ft 6s 6s 16 20 mph 1010.6mb 56f 56f
7:50pm 5.5ft 8s 6s 11 16 mph 1010.6mb 56f 56f
6:50pm 5.5ft 8s 6s 13 18 mph 1010.7mb 55f 56f
5:50pm 5.5ft 8s 6s 16 20 mph 1011.2mb 55f 57f
4:50pm 5ft 7s 6s 13 16 mph 1011.4mb 55f 56f
3:50pm 6ft 8s 6s 16 20 mph 1011.9mb 55f 56f
2:50pm 6ft 8s 6s 16 20 mph 1012mb 55f 56f
1:50pm 6.5ft 8s 6s 18 20 mph 1012.3mb 55f 56f
12:50pm 6ft 8s 6s 16 20 mph 1012.4mb 55f 56f
11:50am 6ft 8s 6s 13 16 mph 1012.6mb 55f 55f
10:50am 6ft 8s 6s 13 18 mph 1012.5mb 55f 55f
9:50am 7ft 8s 6s 16 20 mph 1012.2mb 55f 54f
8:50am 7ft 8s 6s 18 25 mph 1012.1mb 55f 54f
7:50am  -   -   -  20 25 mph 1011.8mb 55f 54f
6:50am  -   -   -  18
mph
1011.9mb - 55f
5:50am  -   -   -  18 22 mph 1011.8mb 55f 55f
4:50am 6ft 7s 6s 16 22 mph 1012.1mb 55f 55f
3:50am 5.5ft 7s 6s 20 22 mph 1012.3mb 55f 55f
2:50am  -   -   -  20
mph
1012.3mb 55f 56f
1:50am 5ft 11s 6s 11 16 mph 1013.1mb 56f 55f
12:50am 5ft 11s 6s 13 16 mph 1013.2mb 55f 55f
Sun 08/17 11:50pm 4.5ft 8s 6s 13 16 mph 1013.4mb 55f 55f
10:50pm 4.5ft 11s 6s 11 16 mph 1014.2mb 55f 56f
9:50pm 4.5ft 11s 6s 9 11 mph 1014.6mb 56f 55f
8:50pm 4.5ft 14s 7s 9 11 mph 1014.6mb 56f 55f
7:50pm 4ft 11s 7s 9 11 mph 1014.8mb 56f 55f
6:50pm 4.5ft 11s 7s 9 13 mph 1014.9mb 56f 55f